sensor_id;sensor_type;location;lat;lon;timestamp;P1;durP1;ratioP1;P2;durP2;ratioP2
48665;SDS011;34452;50.796;4.994;2023-09-19T00:01:08;11.10;;;2.15;;
48665;SDS011;34452;50.796;4.994;2023-09-19T00:03:34;18.40;;;2.28;;
48665;SDS011;34452;50.796;4.994;2023-09-19T00:06:04;11.23;;;2.15;;
48665;SDS011;34452;50.796;4.994;2023-09-19T00:08:32;11.82;;;2.83;;
48665;SDS011;34452;50.796;4.994;2023-09-19T00:11:01;15.68;;;2.72;;
48665;SDS011;34452;50.796;4.994;2023-09-19T00:13:28;13.35;;;2.42;;
48665;SDS011;34452;50.796;4.994;2023-09-19T00:15:56;15.18;;;2.85;;
48665;SDS011;34452;50.796;4.994;2023-09-19T00:18:24;13.27;;;2.28;;
48665;SDS011;34452;50.796;4.994;2023-09-19T00:20:57;10.52;;;2.00;;
48665;SDS011;34452;50.796;4.994;2023-09-19T00:23:23;12.15;;;2.15;;
48665;SDS011;34452;50.796;4.994;2023-09-19T00:25:50;9.05;;;2.53;;
48665;SDS011;34452;50.796;4.994;2023-09-19T00:30:42;9.35;;;1.90;;
48665;SDS011;34452;50.796;4.994;2023-09-19T00:35:36;9.30;;;2.38;;
48665;SDS011;34452;50.796;4.994;2023-09-19T00:38:02;11.30;;;2.15;;
48665;SDS011;34452;50.796;4.994;2023-09-19T00:40:29;11.43;;;2.33;;
48665;SDS011;34452;50.796;4.994;2023-09-19T00:45:26;11.60;;;2.33;;
48665;SDS011;34452;50.796;4.994;2023-09-19T00:47:53;14.18;;;2.65;;
48665;SDS011;34452;50.796;4.994;2023-09-19T00:50:20;11.30;;;2.35;;
48665;SDS011;34452;50.796;4.994;2023-09-19T00:52:48;11.90;;;2.17;;
48665;SDS011;34452;50.796;4.994;2023-09-19T00:55:15;17.98;;;2.63;;
48665;SDS011;34452;50.796;4.994;2023-09-19T00:57:44;8.70;;;2.40;;
48665;SDS011;34452;50.796;4.994;2023-09-19T01:00:11;9.57;;;1.95;;
48665;SDS011;34452;50.796;4.994;2023-09-19T01:02:40;10.07;;;1.95;;
48665;SDS011;34452;50.796;4.994;2023-09-19T01:05:08;15.25;;;2.58;;
48665;SDS011;34452;50.796;4.994;2023-09-19T01:07:35;12.05;;;2.65;;
48665;SDS011;34452;50.796;4.994;2023-09-19T01:10:05;11.45;;;2.55;;
48665;SDS011;34452;50.796;4.994;2023-09-19T01:23:59;12.57;;;2.72;;
48665;SDS011;34452;50.796;4.994;2023-09-19T01:29:26;11.05;;;2.25;;
48665;SDS011;34452;50.796;4.994;2023-09-19T01:32:10;11.18;;;2.47;;
48665;SDS011;34452;50.796;4.994;2023-09-19T01:34:43;14.15;;;2.33;;
48665;SDS011;34452;50.796;4.994;2023-09-19T01:37:14;18.83;;;3.13;;
48665;SDS011;34452;50.796;4.994;2023-09-19T01:39:45;12.95;;;2.30;;
48665;SDS011;34452;50.796;4.994;2023-09-19T01:51:14;14.25;;;2.75;;
48665;SDS011;34452;50.796;4.994;2023-09-19T01:53:53;10.98;;;2.10;;
48665;SDS011;34452;50.796;4.994;2023-09-19T01:56:32;17.45;;;3.38;;
48665;SDS011;34452;50.796;4.994;2023-09-19T01:59:06;12.13;;;2.65;;
48665;SDS011;34452;50.796;4.994;2023-09-19T02:01:35;13.63;;;2.60;;
48665;SDS011;34452;50.796;4.994;2023-09-19T02:04:03;16.35;;;2.65;;
48665;SDS011;34452;50.796;4.994;2023-09-19T02:08:55;9.63;;;2.33;;
48665;SDS011;34452;50.796;4.994;2023-09-19T02:11:21;12.13;;;3.08;;
48665;SDS011;34452;50.796;4.994;2023-09-19T02:13:46;18.50;;;2.67;;
48665;SDS011;34452;50.796;4.994;2023-09-19T02:16:12;16.95;;;2.63;;
48665;SDS011;34452;50.796;4.994;2023-09-19T02:18:42;13.13;;;2.97;;
48665;SDS011;34452;50.796;4.994;2023-09-19T02:21:07;16.95;;;3.25;;
48665;SDS011;34452;50.796;4.994;2023-09-19T02:23:35;16.73;;;2.85;;
48665;SDS011;34452;50.796;4.994;2023-09-19T02:26:00;13.75;;;2.67;;
48665;SDS011;34452;50.796;4.994;2023-09-19T02:28:26;20.48;;;2.90;;
48665;SDS011;34452;50.796;4.994;2023-09-19T02:30:57;16.30;;;2.72;;
48665;SDS011;34452;50.796;4.994;2023-09-19T02:35:48;13.00;;;2.25;;
48665;SDS011;34452;50.796;4.994;2023-09-19T02:40:45;14.48;;;2.03;;
48665;SDS011;34452;50.796;4.994;2023-09-19T02:43:11;15.25;;;2.85;;
48665;SDS011;34452;50.796;4.994;2023-09-19T02:45:37;18.38;;;3.15;;
48665;SDS011;34452;50.796;4.994;2023-09-19T02:48:03;13.77;;;2.28;;
48665;SDS011;34452;50.796;4.994;2023-09-19T02:50:29;17.27;;;2.40;;
48665;SDS011;34452;50.796;4.994;2023-09-19T02:52:55;14.27;;;2.97;;
48665;SDS011;34452;50.796;4.994;2023-09-19T02:55:21;15.52;;;2.55;;
48665;SDS011;34452;50.796;4.994;2023-09-19T03:00:20;12.02;;;2.58;;
48665;SDS011;34452;50.796;4.994;2023-09-19T03:02:50;14.70;;;2.28;;
48665;SDS011;34452;50.796;4.994;2023-09-19T03:05:18;13.85;;;2.33;;
48665;SDS011;34452;50.796;4.994;2023-09-19T03:07:44;12.45;;;1.80;;
48665;SDS011;34452;50.796;4.994;2023-09-19T03:10:12;13.80;;;3.17;;
48665;SDS011;34452;50.796;4.994;2023-09-19T03:12:40;14.23;;;2.40;;
48665;SDS011;34452;50.796;4.994;2023-09-19T03:15:06;14.10;;;2.53;;
48665;SDS011;34452;50.796;4.994;2023-09-19T03:17:33;14.80;;;2.95;;
48665;SDS011;34452;50.796;4.994;2023-09-19T03:20:00;11.30;;;2.50;;
48665;SDS011;34452;50.796;4.994;2023-09-19T03:22:27;14.55;;;2.88;;
48665;SDS011;34452;50.796;4.994;2023-09-19T03:24:53;17.20;;;2.90;;
48665;SDS011;34452;50.796;4.994;2023-09-19T03:27:19;11.10;;;2.00;;
48665;SDS011;34452;50.796;4.994;2023-09-19T03:29:46;15.88;;;2.58;;
48665;SDS011;34452;50.796;4.994;2023-09-19T03:34:38;12.85;;;2.33;;
48665;SDS011;34452;50.796;4.994;2023-09-19T03:37:11;14.77;;;3.28;;
48665;SDS011;34452;50.796;4.994;2023-09-19T03:39:37;20.55;;;2.90;;
48665;SDS011;34452;50.796;4.994;2023-09-19T03:42:03;13.38;;;2.45;;
48665;SDS011;34452;50.796;4.994;2023-09-19T03:44:29;13.55;;;2.92;;
48665;SDS011;34452;50.796;4.994;2023-09-19T03:46:55;14.20;;;2.92;;
48665;SDS011;34452;50.796;4.994;2023-09-19T03:49:22;18.77;;;2.92;;
48665;SDS011;34452;50.796;4.994;2023-09-19T03:51:48;14.30;;;2.83;;
48665;SDS011;34452;50.796;4.994;2023-09-19T03:54:13;13.00;;;2.95;;
48665;SDS011;34452;50.796;4.994;2023-09-19T03:56:39;14.55;;;2.88;;
48665;SDS011;34452;50.796;4.994;2023-09-19T03:59:05;30.17;;;4.68;;
48665;SDS011;34452;50.796;4.994;2023-09-19T04:01:31;10.63;;;2.78;;
48665;SDS011;34452;50.796;4.994;2023-09-19T04:03:58;17.40;;;3.15;;
48665;SDS011;34452;50.796;4.994;2023-09-19T04:06:32;10.18;;;1.80;;
48665;SDS011;34452;50.796;4.994;2023-09-19T04:09:02;18.48;;;2.70;;
48665;SDS011;34452;50.796;4.994;2023-09-19T04:11:28;11.98;;;2.20;;
48665;SDS011;34452;50.796;4.994;2023-09-19T04:13:55;16.58;;;3.05;;
48665;SDS011;34452;50.796;4.994;2023-09-19T04:16:21;19.35;;;3.03;;
48665;SDS011;34452;50.796;4.994;2023-09-19T04:18:47;20.70;;;2.83;;
48665;SDS011;34452;50.796;4.994;2023-09-19T04:21:13;20.75;;;2.97;;
48665;SDS011;34452;50.796;4.994;2023-09-19T04:23:39;15.43;;;2.67;;
48665;SDS011;34452;50.796;4.994;2023-09-19T04:26:05;17.27;;;2.80;;
48665;SDS011;34452;50.796;4.994;2023-09-19T04:28:31;12.00;;;2.75;;
48665;SDS011;34452;50.796;4.994;2023-09-19T04:30:59;12.68;;;2.63;;
48665;SDS011;34452;50.796;4.994;2023-09-19T04:33:28;18.95;;;3.65;;
48665;SDS011;34452;50.796;4.994;2023-09-19T04:35:53;12.05;;;2.40;;
48665;SDS011;34452;50.796;4.994;2023-09-19T04:38:20;12.52;;;2.58;;
48665;SDS011;34452;50.796;4.994;2023-09-19T04:40:46;12.43;;;2.53;;
48665;SDS011;34452;50.796;4.994;2023-09-19T04:43:12;18.25;;;3.08;;
48665;SDS011;34452;50.796;4.994;2023-09-19T04:45:38;14.77;;;2.60;;
48665;SDS011;34452;50.796;4.994;2023-09-19T04:48:07;15.57;;;2.80;;
48665;SDS011;34452;50.796;4.994;2023-09-19T04:50:33;11.98;;;2.67;;
48665;SDS011;34452;50.796;4.994;2023-09-19T04:52:59;20.75;;;3.13;;
48665;SDS011;34452;50.796;4.994;2023-09-19T04:55:26;13.23;;;2.58;;
48665;SDS011;34452;50.796;4.994;2023-09-19T04:57:52;14.15;;;3.13;;
48665;SDS011;34452;50.796;4.994;2023-09-19T05:00:21;14.15;;;2.45;;
48665;SDS011;34452;50.796;4.994;2023-09-19T05:02:54;16.33;;;3.67;;
48665;SDS011;34452;50.796;4.994;2023-09-19T05:05:21;18.58;;;3.40;;
48665;SDS011;34452;50.796;4.994;2023-09-19T05:07:51;20.23;;;2.40;;
48665;SDS011;34452;50.796;4.994;2023-09-19T05:10:19;16.58;;;2.67;;
48665;SDS011;34452;50.796;4.994;2023-09-19T05:12:45;12.93;;;2.72;;
48665;SDS011;34452;50.796;4.994;2023-09-19T05:15:13;12.68;;;2.33;;
48665;SDS011;34452;50.796;4.994;2023-09-19T05:17:42;15.80;;;2.72;;
48665;SDS011;34452;50.796;4.994;2023-09-19T05:20:16;14.23;;;2.47;;
48665;SDS011;34452;50.796;4.994;2023-09-19T05:22:57;16.13;;;3.28;;
48665;SDS011;34452;50.796;4.994;2023-09-19T05:25:36;11.70;;;2.53;;
48665;SDS011;34452;50.796;4.994;2023-09-19T05:28:03;16.02;;;2.90;;
48665;SDS011;34452;50.796;4.994;2023-09-19T05:30:31;14.35;;;2.83;;
48665;SDS011;34452;50.796;4.994;2023-09-19T05:32:57;12.82;;;2.85;;
48665;SDS011;34452;50.796;4.994;2023-09-19T05:35:24;14.13;;;2.65;;
48665;SDS011;34452;50.796;4.994;2023-09-19T05:40:17;13.63;;;2.27;;
48665;SDS011;34452;50.796;4.994;2023-09-19T05:45:09;16.95;;;2.72;;
48665;SDS011;34452;50.796;4.994;2023-09-19T05:47:37;17.73;;;2.92;;
48665;SDS011;34452;50.796;4.994;2023-09-19T05:50:05;20.90;;;2.58;;
48665;SDS011;34452;50.796;4.994;2023-09-19T05:52:34;12.45;;;2.50;;
48665;SDS011;34452;50.796;4.994;2023-09-19T05:55:03;12.30;;;2.42;;
48665;SDS011;34452;50.796;4.994;2023-09-19T05:57:32;20.48;;;3.30;;
48665;SDS011;34452;50.796;4.994;2023-09-19T05:59:59;23.00;;;3.78;;
48665;SDS011;34452;50.796;4.994;2023-09-19T06:02:25;15.65;;;3.05;;
48665;SDS011;34452;50.796;4.994;2023-09-19T06:04:55;18.80;;;2.85;;
48665;SDS011;34452;50.796;4.994;2023-09-19T06:07:21;15.70;;;2.90;;
48665;SDS011;34452;50.796;4.994;2023-09-19T06:09:51;16.25;;;3.08;;
48665;SDS011;34452;50.796;4.994;2023-09-19T06:12:18;18.02;;;2.78;;
48665;SDS011;34452;50.796;4.994;2023-09-19T06:14:44;18.02;;;2.63;;
48665;SDS011;34452;50.796;4.994;2023-09-19T06:17:10;14.07;;;2.28;;
48665;SDS011;34452;50.796;4.994;2023-09-19T06:19:36;14.80;;;3.23;;
48665;SDS011;34452;50.796;4.994;2023-09-19T06:22:01;19.00;;;3.40;;
48665;SDS011;34452;50.796;4.994;2023-09-19T06:24:27;18.95;;;2.22;;
48665;SDS011;34452;50.796;4.994;2023-09-19T06:26:53;20.60;;;2.58;;
48665;SDS011;34452;50.796;4.994;2023-09-19T06:29:20;14.27;;;2.35;;
48665;SDS011;34452;50.796;4.994;2023-09-19T06:31:48;17.35;;;2.58;;
48665;SDS011;34452;50.796;4.994;2023-09-19T06:34:14;15.18;;;2.63;;
48665;SDS011;34452;50.796;4.994;2023-09-19T06:36:43;12.07;;;2.47;;
48665;SDS011;34452;50.796;4.994;2023-09-19T06:39:10;12.52;;;2.40;;
48665;SDS011;34452;50.796;4.994;2023-09-19T06:41:36;15.15;;;2.33;;
48665;SDS011;34452;50.796;4.994;2023-09-19T06:44:04;12.50;;;2.25;;
48665;SDS011;34452;50.796;4.994;2023-09-19T06:46:30;16.58;;;3.22;;
48665;SDS011;34452;50.796;4.994;2023-09-19T06:49:00;13.82;;;2.70;;
48665;SDS011;34452;50.796;4.994;2023-09-19T06:51:31;8.52;;;2.47;;
48665;SDS011;34452;50.796;4.994;2023-09-19T06:53:57;10.85;;;2.35;;
48665;SDS011;34452;50.796;4.994;2023-09-19T06:56:23;15.20;;;2.65;;
48665;SDS011;34452;50.796;4.994;2023-09-19T06:58:49;10.30;;;2.67;;
48665;SDS011;34452;50.796;4.994;2023-09-19T07:01:15;16.77;;;2.95;;
48665;SDS011;34452;50.796;4.994;2023-09-19T07:03:42;17.80;;;3.42;;
48665;SDS011;34452;50.796;4.994;2023-09-19T07:06:10;16.70;;;2.88;;
48665;SDS011;34452;50.796;4.994;2023-09-19T07:08:36;10.63;;;2.17;;
48665;SDS011;34452;50.796;4.994;2023-09-19T07:11:03;11.25;;;2.72;;
48665;SDS011;34452;50.796;4.994;2023-09-19T07:13:31;10.88;;;2.63;;
48665;SDS011;34452;50.796;4.994;2023-09-19T07:18:26;11.70;;;2.33;;
48665;SDS011;34452;50.796;4.994;2023-09-19T07:20:56;18.63;;;3.10;;
48665;SDS011;34452;50.796;4.994;2023-09-19T07:23:24;13.80;;;2.47;;
48665;SDS011;34452;50.796;4.994;2023-09-19T07:25:51;13.13;;;2.50;;
48665;SDS011;34452;50.796;4.994;2023-09-19T07:28:17;15.82;;;3.25;;
48665;SDS011;34452;50.796;4.994;2023-09-19T07:33:09;14.30;;;2.58;;
48665;SDS011;34452;50.796;4.994;2023-09-19T07:35:37;17.20;;;3.33;;
48665;SDS011;34452;50.796;4.994;2023-09-19T07:38:07;13.57;;;2.63;;
48665;SDS011;34452;50.796;4.994;2023-09-19T07:40:33;14.23;;;2.63;;
48665;SDS011;34452;50.796;4.994;2023-09-19T07:42:59;16.67;;;2.67;;
48665;SDS011;34452;50.796;4.994;2023-09-19T07:45:27;18.23;;;3.42;;
48665;SDS011;34452;50.796;4.994;2023-09-19T07:47:55;12.93;;;2.45;;
48665;SDS011;34452;50.796;4.994;2023-09-19T07:50:21;12.30;;;2.42;;
48665;SDS011;34452;50.796;4.994;2023-09-19T07:52:47;11.77;;;2.83;;
48665;SDS011;34452;50.796;4.994;2023-09-19T07:55:16;14.15;;;2.63;;
48665;SDS011;34452;50.796;4.994;2023-09-19T08:00:09;14.75;;;2.70;;
48665;SDS011;34452;50.796;4.994;2023-09-19T08:02:35;14.35;;;2.65;;
48665;SDS011;34452;50.796;4.994;2023-09-19T08:05:03;15.75;;;2.65;;
48665;SDS011;34452;50.796;4.994;2023-09-19T08:07:36;12.43;;;2.42;;
48665;SDS011;34452;50.796;4.994;2023-09-19T08:10:05;14.52;;;2.95;;
48665;SDS011;34452;50.796;4.994;2023-09-19T08:12:42;13.98;;;2.58;;
48665;SDS011;34452;50.796;4.994;2023-09-19T08:15:15;13.85;;;3.08;;
48665;SDS011;34452;50.796;4.994;2023-09-19T08:17:44;15.35;;;2.67;;
48665;SDS011;34452;50.796;4.994;2023-09-19T08:20:11;12.43;;;2.38;;
48665;SDS011;34452;50.796;4.994;2023-09-19T08:25:14;15.65;;;2.85;;
48665;SDS011;34452;50.796;4.994;2023-09-19T08:27:43;26.67;;;3.58;;
48665;SDS011;34452;50.796;4.994;2023-09-19T08:30:17;13.60;;;2.78;;
48665;SDS011;34452;50.796;4.994;2023-09-19T08:32:49;12.73;;;2.25;;
48665;SDS011;34452;50.796;4.994;2023-09-19T08:35:24;16.85;;;2.42;;
48665;SDS011;34452;50.796;4.994;2023-09-19T08:37:50;14.00;;;2.42;;
48665;SDS011;34452;50.796;4.994;2023-09-19T08:40:16;9.68;;;2.63;;
48665;SDS011;34452;50.796;4.994;2023-09-19T08:45:21;13.77;;;2.65;;
48665;SDS011;34452;50.796;4.994;2023-09-19T08:48:05;18.63;;;2.50;;
48665;SDS011;34452;50.796;4.994;2023-09-19T08:53:41;13.25;;;2.75;;
48665;SDS011;34452;50.796;4.994;2023-09-19T08:56:17;13.23;;;2.45;;
48665;SDS011;34452;50.796;4.994;2023-09-19T08:58:51;15.02;;;2.33;;
48665;SDS011;34452;50.796;4.994;2023-09-19T09:01:28;15.32;;;2.92;;
48665;SDS011;34452;50.796;4.994;2023-09-19T09:03:57;17.83;;;2.60;;
48665;SDS011;34452;50.796;4.994;2023-09-19T09:06:24;13.73;;;2.35;;
48665;SDS011;34452;50.796;4.994;2023-09-19T09:08:51;15.98;;;2.80;;
48665;SDS011;34452;50.796;4.994;2023-09-19T09:13:44;13.98;;;2.75;;
48665;SDS011;34452;50.796;4.994;2023-09-19T09:16:10;16.25;;;2.80;;
48665;SDS011;34452;50.796;4.994;2023-09-19T09:18:37;20.95;;;3.08;;
48665;SDS011;34452;50.796;4.994;2023-09-19T09:23:30;13.40;;;2.40;;
48665;SDS011;34452;50.796;4.994;2023-09-19T09:25:58;12.88;;;2.30;;
48665;SDS011;34452;50.796;4.994;2023-09-19T09:28:28;14.73;;;2.15;;
48665;SDS011;34452;50.796;4.994;2023-09-19T09:30:56;10.98;;;3.15;;
48665;SDS011;34452;50.796;4.994;2023-09-19T09:33:53;15.45;;;2.55;;
48665;SDS011;34452;50.796;4.994;2023-09-19T09:36:33;18.10;;;3.45;;
48665;SDS011;34452;50.796;4.994;2023-09-19T09:39:00;9.10;;;2.22;;
48665;SDS011;34452;50.796;4.994;2023-09-19T09:41:41;14.75;;;2.30;;
48665;SDS011;34452;50.796;4.994;2023-09-19T09:44:17;15.23;;;2.63;;
48665;SDS011;34452;50.796;4.994;2023-09-19T09:46:45;24.77;;;3.03;;
48665;SDS011;34452;50.796;4.994;2023-09-19T09:49:15;18.00;;;3.00;;
48665;SDS011;34452;50.796;4.994;2023-09-19T09:54:58;10.93;;;2.20;;
48665;SDS011;34452;50.796;4.994;2023-09-19T09:57:33;9.40;;;1.77;;
48665;SDS011;34452;50.796;4.994;2023-09-19T10:00:00;16.65;;;2.33;;
48665;SDS011;34452;50.796;4.994;2023-09-19T10:02:38;14.80;;;2.65;;
48665;SDS011;34452;50.796;4.994;2023-09-19T10:05:17;13.63;;;2.20;;
48665;SDS011;34452;50.796;4.994;2023-09-19T10:07:54;13.57;;;2.53;;
48665;SDS011;34452;50.796;4.994;2023-09-19T10:10:34;17.50;;;2.63;;
48665;SDS011;34452;50.796;4.994;2023-09-19T10:13:07;17.65;;;2.88;;
48665;SDS011;34452;50.796;4.994;2023-09-19T10:15:37;19.88;;;2.20;;
48665;SDS011;34452;50.796;4.994;2023-09-19T10:18:06;13.18;;;2.10;;
48665;SDS011;34452;50.796;4.994;2023-09-19T10:20:44;9.52;;;1.65;;
48665;SDS011;34452;50.796;4.994;2023-09-19T10:23:11;15.60;;;2.28;;
48665;SDS011;34452;50.796;4.994;2023-09-19T10:25:42;9.43;;;2.10;;
48665;SDS011;34452;50.796;4.994;2023-09-19T10:28:11;14.75;;;2.22;;
48665;SDS011;34452;50.796;4.994;2023-09-19T10:30:42;17.13;;;3.22;;
48665;SDS011;34452;50.796;4.994;2023-09-19T10:33:10;14.95;;;2.63;;
48665;SDS011;34452;50.796;4.994;2023-09-19T10:35:38;10.75;;;2.08;;
48665;SDS011;34452;50.796;4.994;2023-09-19T10:38:07;17.90;;;2.28;;
48665;SDS011;34452;50.796;4.994;2023-09-19T10:40:35;11.63;;;2.22;;
48665;SDS011;34452;50.796;4.994;2023-09-19T10:43:06;9.38;;;1.90;;
48665;SDS011;34452;50.796;4.994;2023-09-19T10:45:35;8.70;;;1.40;;
48665;SDS011;34452;50.796;4.994;2023-09-19T10:48:04;13.35;;;1.92;;
48665;SDS011;34452;50.796;4.994;2023-09-19T10:50:33;8.60;;;1.67;;
48665;SDS011;34452;50.796;4.994;2023-09-19T10:53:10;10.60;;;1.95;;
48665;SDS011;34452;50.796;4.994;2023-09-19T10:55:39;16.00;;;2.63;;
48665;SDS011;34452;50.796;4.994;2023-09-19T10:58:05;9.23;;;1.50;;
48665;SDS011;34452;50.796;4.994;2023-09-19T11:00:53;8.95;;;1.90;;
48665;SDS011;34452;50.796;4.994;2023-09-19T11:03:30;8.23;;;1.48;;
48665;SDS011;34452;50.796;4.994;2023-09-19T11:06:01;12.25;;;1.80;;
48665;SDS011;34452;50.796;4.994;2023-09-19T11:08:30;6.75;;;1.40;;
48665;SDS011;34452;50.796;4.994;2023-09-19T11:22:23;7.32;;;1.48;;
48665;SDS011;34452;50.796;4.994;2023-09-19T11:24:51;6.03;;;1.30;;
48665;SDS011;34452;50.796;4.994;2023-09-19T11:27:21;5.70;;;1.13;;
48665;SDS011;34452;50.796;4.994;2023-09-19T11:29:46;6.97;;;1.20;;
48665;SDS011;34452;50.796;4.994;2023-09-19T11:32:14;6.10;;;1.38;;
48665;SDS011;34452;50.796;4.994;2023-09-19T11:34:42;6.72;;;1.33;;
48665;SDS011;34452;50.796;4.994;2023-09-19T11:42:41;8.27;;;1.50;;
48665;SDS011;34452;50.796;4.994;2023-09-19T11:48:18;8.18;;;1.60;;
48665;SDS011;34452;50.796;4.994;2023-09-19T11:50:45;10.60;;;1.30;;
48665;SDS011;34452;50.796;4.994;2023-09-19T11:53:12;6.35;;;1.77;;
48665;SDS011;34452;50.796;4.994;2023-09-19T11:55:39;6.78;;;1.17;;
48665;SDS011;34452;50.796;4.994;2023-09-19T11:58:08;4.63;;;1.27;;
48665;SDS011;34452;50.796;4.994;2023-09-19T12:00:37;7.07;;;1.35;;
48665;SDS011;34452;50.796;4.994;2023-09-19T12:03:08;5.65;;;1.13;;
48665;SDS011;34452;50.796;4.994;2023-09-19T12:05:35;5.60;;;1.27;;
48665;SDS011;34452;50.796;4.994;2023-09-19T12:08:05;5.82;;;1.13;;
48665;SDS011;34452;50.796;4.994;2023-09-19T12:10:45;6.88;;;1.20;;
48665;SDS011;34452;50.796;4.994;2023-09-19T12:13:15;6.13;;;1.30;;
48665;SDS011;34452;50.796;4.994;2023-09-19T12:15:44;4.22;;;1.20;;
48665;SDS011;34452;50.796;4.994;2023-09-19T12:18:31;3.85;;;1.10;;
48665;SDS011;34452;50.796;4.994;2023-09-19T12:20:58;7.80;;;0.82;;
48665;SDS011;34452;50.796;4.994;2023-09-19T12:23:25;6.47;;;1.10;;
48665;SDS011;34452;50.796;4.994;2023-09-19T12:25:51;4.38;;;1.10;;
48665;SDS011;34452;50.796;4.994;2023-09-19T12:28:19;7.65;;;0.95;;
48665;SDS011;34452;50.796;4.994;2023-09-19T12:30:48;13.60;;;1.38;;
48665;SDS011;34452;50.796;4.994;2023-09-19T12:35:45;5.25;;;1.05;;
48665;SDS011;34452;50.796;4.994;2023-09-19T12:38:21;2.33;;;0.88;;
48665;SDS011;34452;50.796;4.994;2023-09-19T12:40:49;6.35;;;1.33;;
48665;SDS011;34452;50.796;4.994;2023-09-19T12:43:16;8.80;;;1.05;;
48665;SDS011;34452;50.796;4.994;2023-09-19T12:45:43;3.53;;;1.02;;
48665;SDS011;34452;50.796;4.994;2023-09-19T12:48:23;3.22;;;1.20;;
48665;SDS011;34452;50.796;4.994;2023-09-19T12:51:02;4.05;;;1.30;;
48665;SDS011;34452;50.796;4.994;2023-09-19T12:53:36;6.38;;;1.00;;
48665;SDS011;34452;50.796;4.994;2023-09-19T12:56:08;6.07;;;1.17;;
48665;SDS011;34452;50.796;4.994;2023-09-19T12:58:54;11.80;;;1.00;;
48665;SDS011;34452;50.796;4.994;2023-09-19T13:01:24;5.78;;;1.10;;
48665;SDS011;34452;50.796;4.994;2023-09-19T13:04:13;5.75;;;1.27;;
48665;SDS011;34452;50.796;4.994;2023-09-19T13:06:44;3.65;;;0.93;;
48665;SDS011;34452;50.796;4.994;2023-09-19T13:09:15;5.32;;;1.13;;
48665;SDS011;34452;50.796;4.994;2023-09-19T13:11:42;12.98;;;0.90;;
48665;SDS011;34452;50.796;4.994;2023-09-19T13:14:16;9.35;;;0.90;;
48665;SDS011;34452;50.796;4.994;2023-09-19T13:16:54;6.70;;;1.42;;
48665;SDS011;34452;50.796;4.994;2023-09-19T13:19:40;5.68;;;1.10;;
48665;SDS011;34452;50.796;4.994;2023-09-19T13:25:17;3.65;;;0.77;;
48665;SDS011;34452;50.796;4.994;2023-09-19T13:27:45;6.55;;;1.00;;
48665;SDS011;34452;50.796;4.994;2023-09-19T13:30:19;4.15;;;0.90;;
48665;SDS011;34452;50.796;4.994;2023-09-19T13:32:46;4.80;;;1.17;;
48665;SDS011;34452;50.796;4.994;2023-09-19T13:35:13;9.80;;;1.30;;
48665;SDS011;34452;50.796;4.994;2023-09-19T13:37:40;5.03;;;0.90;;
48665;SDS011;34452;50.796;4.994;2023-09-19T13:40:10;4.40;;;1.02;;
48665;SDS011;34452;50.796;4.994;2023-09-19T13:42:37;3.22;;;0.98;;
48665;SDS011;34452;50.796;4.994;2023-09-19T13:45:04;5.97;;;1.33;;
48665;SDS011;34452;50.796;4.994;2023-09-19T13:47:30;13.50;;;1.33;;
48665;SDS011;34452;50.796;4.994;2023-09-19T13:49:57;6.47;;;1.10;;
48665;SDS011;34452;50.796;4.994;2023-09-19T13:52:23;2.53;;;0.85;;
48665;SDS011;34452;50.796;4.994;2023-09-19T13:54:53;3.78;;;0.93;;
48665;SDS011;34452;50.796;4.994;2023-09-19T13:57:21;3.95;;;1.00;;
48665;SDS011;34452;50.796;4.994;2023-09-19T13:59:50;5.85;;;1.20;;
48665;SDS011;34452;50.796;4.994;2023-09-19T14:02:17;7.25;;;1.13;;
48665;SDS011;34452;50.796;4.994;2023-09-19T14:04:48;12.65;;;1.67;;
48665;SDS011;34452;50.796;4.994;2023-09-19T14:07:15;11.38;;;1.52;;
48665;SDS011;34452;50.796;4.994;2023-09-19T14:09:42;5.07;;;1.30;;
48665;SDS011;34452;50.796;4.994;2023-09-19T14:12:08;8.32;;;1.20;;
48665;SDS011;34452;50.796;4.994;2023-09-19T14:14:34;7.43;;;1.05;;
48665;SDS011;34452;50.796;4.994;2023-09-19T14:17:00;3.65;;;1.10;;
48665;SDS011;34452;50.796;4.994;2023-09-19T14:19:26;7.13;;;1.38;;
48665;SDS011;34452;50.796;4.994;2023-09-19T14:21:52;6.07;;;1.20;;
48665;SDS011;34452;50.796;4.994;2023-09-19T14:24:21;6.88;;;1.17;;
48665;SDS011;34452;50.796;4.994;2023-09-19T14:29:14;3.33;;;1.00;;
48665;SDS011;34452;50.796;4.994;2023-09-19T14:31:40;10.52;;;1.35;;
48665;SDS011;34452;50.796;4.994;2023-09-19T14:36:35;5.45;;;1.35;;
48665;SDS011;34452;50.796;4.994;2023-09-19T14:39:01;7.28;;;1.40;;
48665;SDS011;34452;50.796;4.994;2023-09-19T14:43:53;7.90;;;1.02;;
48665;SDS011;34452;50.796;4.994;2023-09-19T14:46:20;4.88;;;1.10;;
48665;SDS011;34452;50.796;4.994;2023-09-19T14:48:46;8.82;;;1.40;;
48665;SDS011;34452;50.796;4.994;2023-09-19T14:51:14;7.28;;;1.20;;
48665;SDS011;34452;50.796;4.994;2023-09-19T14:53:40;5.82;;;1.38;;
48665;SDS011;34452;50.796;4.994;2023-09-19T14:58:36;6.88;;;1.67;;
48665;SDS011;34452;50.796;4.994;2023-09-19T15:03:35;10.85;;;1.58;;
48665;SDS011;34452;50.796;4.994;2023-09-19T15:06:11;16.15;;;1.63;;
48665;SDS011;34452;50.796;4.994;2023-09-19T15:08:42;7.18;;;1.38;;
48665;SDS011;34452;50.796;4.994;2023-09-19T15:11:18;9.82;;;1.27;;
48665;SDS011;34452;50.796;4.994;2023-09-19T15:13:45;5.32;;;1.58;;
48665;SDS011;34452;50.796;4.994;2023-09-19T15:16:12;7.68;;;1.20;;
48665;SDS011;34452;50.796;4.994;2023-09-19T15:18:42;4.95;;;1.23;;
48665;SDS011;34452;50.796;4.994;2023-09-19T15:21:10;7.75;;;1.73;;
48665;SDS011;34452;50.796;4.994;2023-09-19T15:23:37;7.82;;;1.40;;
48665;SDS011;34452;50.796;4.994;2023-09-19T15:26:04;6.30;;;2.08;;
48665;SDS011;34452;50.796;4.994;2023-09-19T15:28:32;11.20;;;1.63;;
48665;SDS011;34452;50.796;4.994;2023-09-19T15:31:00;10.52;;;1.63;;
48665;SDS011;34452;50.796;4.994;2023-09-19T15:33:27;7.18;;;1.42;;
48665;SDS011;34452;50.796;4.994;2023-09-19T15:36:05;11.60;;;1.73;;
48665;SDS011;34452;50.796;4.994;2023-09-19T15:41:28;7.22;;;1.77;;
48665;SDS011;34452;50.796;4.994;2023-09-19T15:43:58;3.42;;;1.25;;
48665;SDS011;34452;50.796;4.994;2023-09-19T15:46:27;5.60;;;1.30;;
48665;SDS011;34452;50.796;4.994;2023-09-19T15:48:54;5.93;;;1.38;;
48665;SDS011;34452;50.796;4.994;2023-09-19T15:51:21;8.93;;;1.20;;
48665;SDS011;34452;50.796;4.994;2023-09-19T15:53:48;4.18;;;1.45;;
48665;SDS011;34452;50.796;4.994;2023-09-19T15:56:15;8.30;;;1.52;;
48665;SDS011;34452;50.796;4.994;2023-09-19T15:58:45;9.98;;;1.63;;
48665;SDS011;34452;50.796;4.994;2023-09-19T16:01:11;5.55;;;1.58;;
48665;SDS011;34452;50.796;4.994;2023-09-19T16:03:38;6.45;;;1.40;;
48665;SDS011;34452;50.796;4.994;2023-09-19T16:06:11;6.88;;;1.45;;
48665;SDS011;34452;50.796;4.994;2023-09-19T16:08:40;6.38;;;1.48;;
48665;SDS011;34452;50.796;4.994;2023-09-19T16:11:06;4.72;;;1.40;;
48665;SDS011;34452;50.796;4.994;2023-09-19T16:13:33;5.20;;;1.10;;
48665;SDS011;34452;50.796;4.994;2023-09-19T16:15:58;7.07;;;1.40;;
48665;SDS011;34452;50.796;4.994;2023-09-19T16:18:24;12.18;;;1.40;;
48665;SDS011;34452;50.796;4.994;2023-09-19T16:20:50;6.15;;;1.48;;
48665;SDS011;34452;50.796;4.994;2023-09-19T16:23:16;5.35;;;1.45;;
48665;SDS011;34452;50.796;4.994;2023-09-19T16:25:42;9.05;;;1.10;;
48665;SDS011;34452;50.796;4.994;2023-09-19T16:28:07;7.15;;;1.23;;
48665;SDS011;34452;50.796;4.994;2023-09-19T16:30:33;4.85;;;1.20;;
48665;SDS011;34452;50.796;4.994;2023-09-19T16:32:59;8.63;;;2.55;;
48665;SDS011;34452;50.796;4.994;2023-09-19T16:35:25;5.75;;;1.13;;
48665;SDS011;34452;50.796;4.994;2023-09-19T16:37:51;12.70;;;1.35;;
48665;SDS011;34452;50.796;4.994;2023-09-19T16:40:17;8.13;;;1.70;;